sensor_id;sensor_type;location;lat;lon;timestamp;pressure;altitude;pressure_sealevel;temperature;humidity
40073;BME280;25774;52.256;9.356;2022-07-23T00:01:27;100839.03;;;14.57;100.00
40073;BME280;25774;52.256;9.356;2022-07-23T00:03:54;100839.66;;;14.60;100.00
40073;BME280;25774;52.256;9.356;2022-07-23T00:06:22;100825.25;;;14.23;100.00
40073;BME280;25774;52.256;9.356;2022-07-23T00:08:48;100838.22;;;14.13;100.00
40073;BME280;25774;52.256;9.356;2022-07-23T00:11:13;100850.06;;;14.22;100.00
40073;BME280;25774;52.256;9.356;2022-07-23T00:13:39;100859.72;;;14.37;100.00
40073;BME280;25774;52.256;9.356;2022-07-23T00:16:04;100872.19;;;14.64;100.00
40073;BME280;25774;52.256;9.356;2022-07-23T00:18:30;100872.03;;;14.80;100.00
40073;BME280;25774;52.256;9.356;2022-07-23T00:20:56;100862.00;;;14.71;100.00
40073;BME280;25774;52.256;9.356;2022-07-23T00:23:21;100870.31;;;14.66;100.00
40073;BME280;25774;52.256;9.356;2022-07-23T00:25:46;100862.13;;;14.69;100.00
40073;BME280;25774;52.256;9.356;2022-07-23T00:28:12;100869.13;;;14.70;100.00
40073;BME280;25774;52.256;9.356;2022-07-23T00:30:37;100874.81;;;14.78;100.00
40073;BME280;25774;52.256;9.356;2022-07-23T00:33:07;100865.31;;;14.61;100.00
40073;BME280;25774;52.256;9.356;2022-07-23T00:35:37;100861.75;;;14.61;100.00
40073;BME280;25774;52.256;9.356;2022-07-23T00:38:05;100847.00;;;14.42;100.00
40073;BME280;25774;52.256;9.356;2022-07-23T00:40:31;100866.69;;;14.67;100.00
40073;BME280;25774;52.256;9.356;2022-07-23T00:42:57;100852.09;;;14.60;100.00
40073;BME280;25774;52.256;9.356;2022-07-23T00:45:22;100852.31;;;14.57;100.00
40073;BME280;25774;52.256;9.356;2022-07-23T00:47:50;100848.06;;;14.40;100.00
40073;BME280;25774;52.256;9.356;2022-07-23T00:50:15;100833.13;;;14.10;100.00
40073;BME280;25774;52.256;9.356;2022-07-23T00:52:41;100838.25;;;13.99;100.00
40073;BME280;25774;52.256;9.356;2022-07-23T00:55:08;100832.47;;;13.78;100.00
40073;BME280;25774;52.256;9.356;2022-07-23T00:57:34;100838.84;;;13.76;100.00
40073;BME280;25774;52.256;9.356;2022-07-23T01:00:00;100853.78;;;13.77;100.00
40073;BME280;25774;52.256;9.356;2022-07-23T01:02:26;100867.44;;;13.70;100.00
40073;BME280;25774;52.256;9.356;2022-07-23T01:04:54;100875.28;;;13.58;100.00
40073;BME280;25774;52.256;9.356;2022-07-23T01:07:20;100881.41;;;13.44;100.00
40073;BME280;25774;52.256;9.356;2022-07-23T01:09:46;100886.84;;;13.57;100.00
40073;BME280;25774;52.256;9.356;2022-07-23T01:12:12;100902.00;;;13.83;100.00
40073;BME280;25774;52.256;9.356;2022-07-23T01:14:37;100888.56;;;13.86;100.00
40073;BME280;25774;52.256;9.356;2022-07-23T01:17:03;100885.34;;;13.95;100.00
40073;BME280;25774;52.256;9.356;2022-07-23T01:19:29;100879.84;;;13.99;100.00
40073;BME280;25774;52.256;9.356;2022-07-23T01:21:57;100872.53;;;13.88;100.00
40073;BME280;25774;52.256;9.356;2022-07-23T01:24:22;100863.19;;;13.82;100.00
40073;BME280;25774;52.256;9.356;2022-07-23T01:26:48;100860.31;;;13.71;100.00
40073;BME280;25774;52.256;9.356;2022-07-23T01:29:14;100867.53;;;13.69;100.00
40073;BME280;25774;52.256;9.356;2022-07-23T01:31:40;100870.25;;;13.67;100.00
40073;BME280;25774;52.256;9.356;2022-07-23T01:34:06;100868.56;;;13.66;100.00
40073;BME280;25774;52.256;9.356;2022-07-23T01:36:33;100864.59;;;13.73;100.00
40073;BME280;25774;52.256;9.356;2022-07-23T01:38:59;100882.69;;;13.95;100.00
40073;BME280;25774;52.256;9.356;2022-07-23T01:41:24;100877.59;;;13.92;100.00
40073;BME280;25774;52.256;9.356;2022-07-23T01:43:50;100867.06;;;13.77;100.00
40073;BME280;25774;52.256;9.356;2022-07-23T01:46:16;100872.34;;;13.91;100.00
40073;BME280;25774;52.256;9.356;2022-07-23T01:48:41;100865.16;;;13.93;100.00
40073;BME280;25774;52.256;9.356;2022-07-23T01:51:07;100871.22;;;13.95;100.00
40073;BME280;25774;52.256;9.356;2022-07-23T01:53:33;100863.16;;;13.96;100.00
40073;BME280;25774;52.256;9.356;2022-07-23T01:55:59;100861.53;;;13.94;100.00
40073;BME280;25774;52.256;9.356;2022-07-23T01:58:25;100861.06;;;13.87;100.00
40073;BME280;25774;52.256;9.356;2022-07-23T02:00:51;100854.81;;;13.74;100.00
40073;BME280;25774;52.256;9.356;2022-07-23T02:03:16;100860.13;;;13.74;100.00
40073;BME280;25774;52.256;9.356;2022-07-23T02:05:42;100881.47;;;14.01;100.00
40073;BME280;25774;52.256;9.356;2022-07-23T02:08:07;100884.56;;;14.22;100.00
40073;BME280;25774;52.256;9.356;2022-07-23T02:10:32;100875.09;;;14.18;100.00
40073;BME280;25774;52.256;9.356;2022-07-23T02:12:58;100867.91;;;14.20;100.00
40073;BME280;25774;52.256;9.356;2022-07-23T02:15:23;100865.91;;;14.24;100.00
40073;BME280;25774;52.256;9.356;2022-07-23T02:17:49;100880.13;;;14.08;100.00
40073;BME280;25774;52.256;9.356;2022-07-23T02:20:15;100891.81;;;14.20;100.00
40073;BME280;25774;52.256;9.356;2022-07-23T02:22:40;100888.06;;;14.37;100.00
40073;BME280;25774;52.256;9.356;2022-07-23T02:25:07;100867.28;;;14.43;100.00
40073;BME280;25774;52.256;9.356;2022-07-23T02:27:32;100872.50;;;14.59;100.00
40073;BME280;25774;52.256;9.356;2022-07-23T02:29:58;100864.72;;;14.56;100.00
40073;BME280;25774;52.256;9.356;2022-07-23T02:32:24;100862.28;;;14.53;100.00
40073;BME280;25774;52.256;9.356;2022-07-23T02:34:50;100863.66;;;14.45;100.00
40073;BME280;25774;52.256;9.356;2022-07-23T02:37:15;100850.59;;;14.41;100.00
40073;BME280;25774;52.256;9.356;2022-07-23T02:39:41;100833.56;;;14.31;100.00
40073;BME280;25774;52.256;9.356;2022-07-23T02:42:06;100831.06;;;14.42;100.00
40073;BME280;25774;52.256;9.356;2022-07-23T02:44:33;100830.69;;;14.49;100.00
40073;BME280;25774;52.256;9.356;2022-07-23T02:46:58;100844.31;;;14.57;100.00
40073;BME280;25774;52.256;9.356;2022-07-23T02:49:23;100845.56;;;14.51;100.00
40073;BME280;25774;52.256;9.356;2022-07-23T02:51:49;100850.59;;;14.41;100.00
40073;BME280;25774;52.256;9.356;2022-07-23T02:54:15;100852.84;;;14.48;100.00
40073;BME280;25774;52.256;9.356;2022-07-23T02:56:40;100858.19;;;14.62;100.00
40073;BME280;25774;52.256;9.356;2022-07-23T02:59:06;100851.50;;;14.69;100.00
40073;BME280;25774;52.256;9.356;2022-07-23T03:01:31;100847.16;;;14.68;100.00
40073;BME280;25774;52.256;9.356;2022-07-23T03:03:56;100845.34;;;14.69;100.00
40073;BME280;25774;52.256;9.356;2022-07-23T03:06:24;100848.69;;;14.58;100.00
40073;BME280;25774;52.256;9.356;2022-07-23T03:08:49;100845.63;;;14.64;100.00
40073;BME280;25774;52.256;9.356;2022-07-23T03:11:14;100852.66;;;14.65;100.00
40073;BME280;25774;52.256;9.356;2022-07-23T03:13:40;100856.97;;;14.53;100.00
40073;BME280;25774;52.256;9.356;2022-07-23T03:16:06;100865.72;;;14.27;100.00
40073;BME280;25774;52.256;9.356;2022-07-23T03:18:32;100874.59;;;14.26;100.00
40073;BME280;25774;52.256;9.356;2022-07-23T03:20:58;100891.50;;;14.25;100.00
40073;BME280;25774;52.256;9.356;2022-07-23T03:23:24;100906.78;;;14.21;100.00
40073;BME280;25774;52.256;9.356;2022-07-23T03:25:49;100909.22;;;14.24;100.00
40073;BME280;25774;52.256;9.356;2022-07-23T03:28:15;100924.38;;;14.22;100.00
40073;BME280;25774;52.256;9.356;2022-07-23T03:30:42;100937.13;;;14.17;100.00
40073;BME280;25774;52.256;9.356;2022-07-23T03:33:08;100954.25;;;14.26;100.00
40073;BME280;25774;52.256;9.356;2022-07-23T03:35:33;100963.84;;;14.42;100.00
40073;BME280;25774;52.256;9.356;2022-07-23T03:37:59;100972.88;;;14.54;100.00
40073;BME280;25774;52.256;9.356;2022-07-23T03:40:24;100970.78;;;14.59;100.00
40073;BME280;25774;52.256;9.356;2022-07-23T03:42:49;100962.03;;;14.43;100.00
40073;BME280;25774;52.256;9.356;2022-07-23T03:45:15;100971.63;;;14.46;100.00
40073;BME280;25774;52.256;9.356;2022-07-23T03:47:40;100969.28;;;14.55;100.00
40073;BME280;25774;52.256;9.356;2022-07-23T03:50:06;100977.91;;;14.59;100.00
40073;BME280;25774;52.256;9.356;2022-07-23T03:52:32;100973.78;;;14.68;100.00
40073;BME280;25774;52.256;9.356;2022-07-23T03:54:57;100963.09;;;14.69;100.00
40073;BME280;25774;52.256;9.356;2022-07-23T03:57:22;100962.69;;;14.75;100.00
40073;BME280;25774;52.256;9.356;2022-07-23T03:59:48;100963.03;;;14.83;100.00
40073;BME280;25774;52.256;9.356;2022-07-23T04:02:14;100959.06;;;14.76;100.00
40073;BME280;25774;52.256;9.356;2022-07-23T04:04:39;100950.75;;;14.54;100.00
40073;BME280;25774;52.256;9.356;2022-07-23T04:07:05;100961.47;;;14.67;100.00
40073;BME280;25774;52.256;9.356;2022-07-23T04:09:33;100972.00;;;14.68;100.00
40073;BME280;25774;52.256;9.356;2022-07-23T04:11:58;100973.53;;;14.58;100.00
40073;BME280;25774;52.256;9.356;2022-07-23T04:14:24;100978.63;;;14.61;100.00
40073;BME280;25774;52.256;9.356;2022-07-23T04:16:50;100976.44;;;14.68;100.00
40073;BME280;25774;52.256;9.356;2022-07-23T04:19:15;100976.56;;;14.66;100.00
40073;BME280;25774;52.256;9.356;2022-07-23T04:21:41;100959.50;;;14.56;100.00
40073;BME280;25774;52.256;9.356;2022-07-23T04:24:06;100954.53;;;14.50;100.00
40073;BME280;25774;52.256;9.356;2022-07-23T04:26:32;100954.53;;;14.50;100.00
40073;BME280;25774;52.256;9.356;2022-07-23T04:28:57;100948.75;;;14.43;100.00
40073;BME280;25774;52.256;9.356;2022-07-23T04:31:22;100957.97;;;14.37;100.00
40073;BME280;25774;52.256;9.356;2022-07-23T04:33:48;100958.94;;;14.51;100.00
40073;BME280;25774;52.256;9.356;2022-07-23T04:36:13;100968.84;;;14.47;100.00
40073;BME280;25774;52.256;9.356;2022-07-23T04:38:39;100964.50;;;14.32;100.00
40073;BME280;25774;52.256;9.356;2022-07-23T04:41:04;100965.72;;;14.26;100.00
40073;BME280;25774;52.256;9.356;2022-07-23T04:43:30;100955.22;;;14.25;100.00
40073;BME280;25774;52.256;9.356;2022-07-23T04:45:55;100966.13;;;14.34;100.00
40073;BME280;25774;52.256;9.356;2022-07-23T04:48:20;100980.94;;;14.53;100.00
40073;BME280;25774;52.256;9.356;2022-07-23T04:50:46;100982.72;;;14.67;100.00
40073;BME280;25774;52.256;9.356;2022-07-23T04:53:11;100975.78;;;14.64;100.00
40073;BME280;25774;52.256;9.356;2022-07-23T04:55:37;100977.13;;;14.71;100.00
40073;BME280;25774;52.256;9.356;2022-07-23T04:58:03;100965.53;;;14.72;100.00
40073;BME280;25774;52.256;9.356;2022-07-23T05:00:28;100965.53;;;14.72;100.00
40073;BME280;25774;52.256;9.356;2022-07-23T05:02:53;100962.34;;;14.53;100.00
40073;BME280;25774;52.256;9.356;2022-07-23T05:05:19;100976.75;;;14.63;100.00
40073;BME280;25774;52.256;9.356;2022-07-23T05:07:44;100975.31;;;14.72;100.00
40073;BME280;25774;52.256;9.356;2022-07-23T05:10:09;100981.63;;;14.83;100.00
40073;BME280;25774;52.256;9.356;2022-07-23T05:12:35;100983.25;;;15.00;100.00
40073;BME280;25774;52.256;9.356;2022-07-23T05:15:00;100988.41;;;15.16;100.00
40073;BME280;25774;52.256;9.356;2022-07-23T05:17:26;100978.31;;;15.21;100.00
40073;BME280;25774;52.256;9.356;2022-07-23T05:19:52;100977.09;;;15.40;100.00
40073;BME280;25774;52.256;9.356;2022-07-23T05:22:17;100961.16;;;15.40;100.00
40073;BME280;25774;52.256;9.356;2022-07-23T05:24:43;100975.69;;;15.61;100.00
40073;BME280;25774;52.256;9.356;2022-07-23T05:27:08;100963.13;;;15.63;100.00
40073;BME280;25774;52.256;9.356;2022-07-23T05:29:34;100947.56;;;15.57;100.00
40073;BME280;25774;52.256;9.356;2022-07-23T05:31:59;100951.16;;;15.70;100.00
40073;BME280;25774;52.256;9.356;2022-07-23T05:34:26;100937.84;;;15.70;100.00
40073;BME280;25774;52.256;9.356;2022-07-23T05:36:51;100928.47;;;15.77;100.00
40073;BME280;25774;52.256;9.356;2022-07-23T05:39:16;100936.13;;;15.82;100.00
40073;BME280;25774;52.256;9.356;2022-07-23T05:41:42;100937.88;;;15.96;100.00
40073;BME280;25774;52.256;9.356;2022-07-23T05:44:07;100927.84;;;16.12;100.00
40073;BME280;25774;52.256;9.356;2022-07-23T05:46:32;100912.59;;;16.14;100.00
40073;BME280;25774;52.256;9.356;2022-07-23T05:48:57;100907.94;;;16.18;100.00
40073;BME280;25774;52.256;9.356;2022-07-23T05:51:24;100913.75;;;16.36;100.00
40073;BME280;25774;52.256;9.356;2022-07-23T05:53:50;100897.28;;;16.18;100.00
40073;BME280;25774;52.256;9.356;2022-07-23T05:56:17;100897.47;;;16.27;100.00
40073;BME280;25774;52.256;9.356;2022-07-23T05:58:42;100893.69;;;16.43;100.00
40073;BME280;25774;52.256;9.356;2022-07-23T06:01:08;100894.34;;;16.46;100.00
40073;BME280;25774;52.256;9.356;2022-07-23T06:03:34;100892.59;;;16.58;100.00
40073;BME280;25774;52.256;9.356;2022-07-23T06:05:59;100873.47;;;16.40;100.00
40073;BME280;25774;52.256;9.356;2022-07-23T06:08:25;100868.84;;;16.18;100.00
40073;BME280;25774;52.256;9.356;2022-07-23T06:10:50;100870.41;;;16.34;100.00
40073;BME280;25774;52.256;9.356;2022-07-23T06:13:18;100854.22;;;16.11;100.00
40073;BME280;25774;52.256;9.356;2022-07-23T06:15:43;100864.78;;;16.13;100.00
40073;BME280;25774;52.256;9.356;2022-07-23T06:18:09;100885.00;;;16.28;100.00
40073;BME280;25774;52.256;9.356;2022-07-23T06:20:34;100881.44;;;16.53;100.00
40073;BME280;25774;52.256;9.356;2022-07-23T06:22:59;100867.63;;;16.35;100.00
40073;BME280;25774;52.256;9.356;2022-07-23T06:25:25;100870.69;;;16.42;100.00
40073;BME280;25774;52.256;9.356;2022-07-23T06:27:50;100876.81;;;16.55;100.00
40073;BME280;25774;52.256;9.356;2022-07-23T06:30:16;100860.91;;;16.79;100.00
40073;BME280;25774;52.256;9.356;2022-07-23T06:32:43;100843.63;;;16.96;100.00
40073;BME280;25774;52.256;9.356;2022-07-23T06:35:09;100815.34;;;16.82;100.00
40073;BME280;25774;52.256;9.356;2022-07-23T06:37:34;100797.16;;;17.11;100.00
40073;BME280;25774;52.256;9.356;2022-07-23T06:39:59;100782.72;;;17.14;100.00
40073;BME280;25774;52.256;9.356;2022-07-23T06:42:25;100781.28;;;17.32;100.00
40073;BME280;25774;52.256;9.356;2022-07-23T06:44:50;100755.78;;;16.94;100.00
40073;BME280;25774;52.256;9.356;2022-07-23T06:47:15;100765.06;;;17.35;100.00
40073;BME280;25774;52.256;9.356;2022-07-23T06:49:41;100751.34;;;17.29;100.00
40073;BME280;25774;52.256;9.356;2022-07-23T06:52:07;100764.34;;;17.44;100.00
40073;BME280;25774;52.256;9.356;2022-07-23T06:54:32;100770.28;;;17.59;100.00
40073;BME280;25774;52.256;9.356;2022-07-23T06:56:57;100772.13;;;17.59;100.00
40073;BME280;25774;52.256;9.356;2022-07-23T06:59:23;100733.41;;;17.42;100.00
40073;BME280;25774;52.256;9.356;2022-07-23T07:01:48;100705.03;;;17.30;100.00
40073;BME280;25774;52.256;9.356;2022-07-23T07:04:13;100691.34;;;17.34;100.00
40073;BME280;25774;52.256;9.356;2022-07-23T07:06:39;100700.41;;;17.65;100.00
40073;BME280;25774;52.256;9.356;2022-07-23T07:09:04;100680.53;;;17.81;100.00
40073;BME280;25774;52.256;9.356;2022-07-23T07:11:30;100673.94;;;17.74;100.00
40073;BME280;25774;52.256;9.356;2022-07-23T07:13:55;100673.25;;;17.60;100.00
40073;BME280;25774;52.256;9.356;2022-07-23T07:16:20;100659.03;;;17.71;100.00
40073;BME280;25774;52.256;9.356;2022-07-23T07:18:46;100660.97;;;17.80;100.00
40073;BME280;25774;52.256;9.356;2022-07-23T07:21:11;100666.44;;;18.22;100.00
40073;BME280;25774;52.256;9.356;2022-07-23T07:23:37;100650.19;;;17.82;100.00
40073;BME280;25774;52.256;9.356;2022-07-23T07:26:02;100642.59;;;17.98;100.00
40073;BME280;25774;52.256;9.356;2022-07-23T07:28:28;100637.16;;;18.00;100.00
40073;BME280;25774;52.256;9.356;2022-07-23T07:30:53;100665.63;;;18.43;100.00
40073;BME280;25774;52.256;9.356;2022-07-23T07:33:18;100637.16;;;18.00;100.00
40073;BME280;25774;52.256;9.356;2022-07-23T07:35:44;100625.16;;;17.94;100.00
40073;BME280;25774;52.256;9.356;2022-07-23T07:38:09;100630.44;;;18.05;100.00
40073;BME280;25774;52.256;9.356;2022-07-23T07:40:35;100653.22;;;18.63;100.00
40073;BME280;25774;52.256;9.356;2022-07-23T07:43:00;100623.31;;;18.27;100.00
40073;BME280;25774;52.256;9.356;2022-07-23T07:45:28;100628.84;;;18.14;100.00
40073;BME280;25774;52.256;9.356;2022-07-23T07:47:54;100659.16;;;18.66;100.00
40073;BME280;25774;52.256;9.356;2022-07-23T07:50:20;100654.75;;;18.97;100.00
40073;BME280;25774;52.256;9.356;2022-07-23T07:52:47;100624.56;;;18.86;100.00
40073;BME280;25774;52.256;9.356;2022-07-23T07:55:12;100632.19;;;18.90;100.00
40073;BME280;25774;52.256;9.356;2022-07-23T07:57:38;100613.75;;;18.45;100.00
40073;BME280;25774;52.256;9.356;2022-07-23T08:00:05;100595.03;;;18.45;100.00
40073;BME280;25774;52.256;9.356;2022-07-23T08:02:40;100606.94;;;18.62;100.00
40073;BME280;25774;52.256;9.356;2022-07-23T08:05:06;100637.16;;;18.74;100.00
40073;BME280;25774;52.256;9.356;2022-07-23T08:07:32;100635.31;;;19.26;100.00
40073;BME280;25774;52.256;9.356;2022-07-23T08:09:57;100612.50;;;19.72;100.00
40073;BME280;25774;52.256;9.356;2022-07-23T08:12:22;100604.91;;;19.96;100.00
40073;BME280;25774;52.256;9.356;2022-07-23T08:14:48;100610.16;;;19.48;100.00
40073;BME280;25774;52.256;9.356;2022-07-23T08:17:14;100589.94;;;19.15;100.00
40073;BME280;25774;52.256;9.356;2022-07-23T08:19:39;100636.28;;;19.25;100.00
40073;BME280;25774;52.256;9.356;2022-07-23T08:22:05;100598.41;;;18.47;100.00
40073;BME280;25774;52.256;9.356;2022-07-23T08:24:30;100640.69;;;18.74;100.00
40073;BME280;25774;52.256;9.356;2022-07-23T08:26:56;100653.38;;;19.03;100.00
40073;BME280;25774;52.256;9.356;2022-07-23T08:29:22;100629.69;;;18.56;100.00
40073;BME280;25774;52.256;9.356;2022-07-23T08:31:47;100669.31;;;19.76;100.00
40073;BME280;25774;52.256;9.356;2022-07-23T08:34:12;100612.22;;;20.43;100.00
40073;BME280;25774;52.256;9.356;2022-07-23T08:36:38;100583.31;;;20.94;100.00
40073;BME280;25774;52.256;9.356;2022-07-23T08:39:03;100540.75;;;21.36;100.00
40073;BME280;25774;52.256;9.356;2022-07-23T08:41:29;100441.41;;;19.69;100.00
40073;BME280;25774;52.256;9.356;2022-07-23T08:43:54;100540.78;;;19.76;100.00
40073;BME280;25774;52.256;9.356;2022-07-23T08:46:20;100571.25;;;19.34;100.00
40073;BME280;25774;52.256;9.356;2022-07-23T08:48:48;100629.06;;;19.56;100.00
40073;BME280;25774;52.256;9.356;2022-07-23T08:51:14;100615.03;;;19.64;100.00
40073;BME280;25774;52.256;9.356;2022-07-23T08:53:40;100574.00;;;20.31;100.00
40073;BME280;25774;52.256;9.356;2022-07-23T08:56:08;100522.56;;;19.60;100.00
40073;BME280;25774;52.256;9.356;2022-07-23T08:58:34;100533.56;;;19.95;100.00
40073;BME280;25774;52.256;9.356;2022-07-23T09:01:01;100560.75;;;19.91;100.00
40073;BME280;25774;52.256;9.356;2022-07-23T09:03:34;100536.03;;;20.55;100.00
40073;BME280;25774;52.256;9.356;2022-07-23T09:06:02;100533.88;;;20.69;100.00
40073;BME280;25774;52.256;9.356;2022-07-23T09:08:41;100584.84;;;21.97;100.00
40073;BME280;25774;52.256;9.356;2022-07-23T09:11:09;100566.63;;;21.27;100.00
40073;BME280;25774;52.256;9.356;2022-07-23T09:16:12;100584.88;;;19.91;100.00
40073;BME280;25774;52.256;9.356;2022-07-23T09:18:49;100559.75;;;20.31;100.00
40073;BME280;25774;52.256;9.356;2022-07-23T09:21:28;100565.97;;;20.88;100.00
40073;BME280;25774;52.256;9.356;2022-07-23T09:24:02;100505.03;;;22.15;100.00
40073;BME280;25774;52.256;9.356;2022-07-23T09:26:42;100337.25;;;20.86;100.00
40073;BME280;25774;52.256;9.356;2022-07-23T09:29:17;100389.69;;;20.53;100.00
40073;BME280;25774;52.256;9.356;2022-07-23T09:32:00;100504.69;;;20.56;100.00
40073;BME280;25774;52.256;9.356;2022-07-23T09:34:29;100528.03;;;20.26;100.00
40073;BME280;25774;52.256;9.356;2022-07-23T09:37:10;100468.84;;;19.90;100.00
40073;BME280;25774;52.256;9.356;2022-07-23T09:39:37;100510.41;;;20.71;100.00
40073;BME280;25774;52.256;9.356;2022-07-23T09:42:13;100514.75;;;21.72;100.00
40073;BME280;25774;52.256;9.356;2022-07-23T09:44:43;100515.34;;;21.66;100.00
40073;BME280;25774;52.256;9.356;2022-07-23T09:47:09;100445.75;;;21.19;100.00
40073;BME280;25774;52.256;9.356;2022-07-23T09:49:34;100463.63;;;20.83;100.00
40073;BME280;25774;52.256;9.356;2022-07-23T09:52:00;100502.63;;;20.30;100.00
40073;BME280;25774;52.256;9.356;2022-07-23T09:57:07;100506.16;;;20.78;100.00
40073;BME280;25774;52.256;9.356;2022-07-23T09:59:38;100493.56;;;20.41;100.00
40073;BME280;25774;52.256;9.356;2022-07-23T10:02:05;100475.63;;;21.52;100.00
40073;BME280;25774;52.256;9.356;2022-07-23T10:04:32;100476.16;;;21.73;100.00
40073;BME280;25774;52.256;9.356;2022-07-23T10:06:58;100536.63;;;22.65;99.42
40073;BME280;25774;52.256;9.356;2022-07-23T10:09:28;100247.41;;;21.08;94.20
40073;BME280;25774;52.256;9.356;2022-07-23T10:11:56;100423.31;;;20.75;100.00
40073;BME280;25774;52.256;9.356;2022-07-23T10:14:26;100558.44;;;21.29;100.00
40073;BME280;25774;52.256;9.356;2022-07-23T10:16:53;100548.34;;;21.13;100.00
40073;BME280;25774;52.256;9.356;2022-07-23T10:19:19;100535.59;;;21.15;100.00
40073;BME280;25774;52.256;9.356;2022-07-23T10:21:49;100490.97;;;21.14;100.00
40073;BME280;25774;52.256;9.356;2022-07-23T10:27:23;100521.66;;;21.93;97.34
40073;BME280;25774;52.256;9.356;2022-07-23T10:30:00;100441.28;;;22.25;93.17
40073;BME280;25774;52.256;9.356;2022-07-23T10:35:28;100542.75;;;21.06;100.00
40073;BME280;25774;52.256;9.356;2022-07-23T10:38:07;100518.81;;;20.85;100.00
40073;BME280;25774;52.256;9.356;2022-07-23T10:40:35;100523.53;;;21.01;100.00
40073;BME280;25774;52.256;9.356;2022-07-23T10:43:01;100554.53;;;20.86;100.00
40073;BME280;25774;52.256;9.356;2022-07-23T10:45:31;100514.03;;;20.79;100.00
40073;BME280;25774;52.256;9.356;2022-07-23T10:51:05;100577.19;;;21.39;100.00
40073;BME280;25774;52.256;9.356;2022-07-23T10:56:16;100505.09;;;21.79;99.24
40073;BME280;25774;52.256;9.356;2022-07-23T10:58:45;100444.66;;;22.27;93.28
40073;BME280;25774;52.256;9.356;2022-07-23T11:01:38;100329.38;;;21.64;90.36
40073;BME280;25774;52.256;9.356;2022-07-23T11:04:04;100412.03;;;21.78;92.66
40073;BME280;25774;52.256;9.356;2022-07-23T11:09:41;100412.16;;;21.95;89.88
40073;BME280;25774;52.256;9.356;2022-07-23T11:15:00;100408.81;;;22.61;83.87
40073;BME280;25774;52.256;9.356;2022-07-23T11:17:27;100466.59;;;22.83;85.83
40073;BME280;25774;52.256;9.356;2022-07-23T11:25:10;100403.47;;;22.01;87.69
40073;BME280;25774;52.256;9.356;2022-07-23T11:27:40;100444.50;;;21.85;89.24
40073;BME280;25774;52.256;9.356;2022-07-23T11:30:10;100382.59;;;21.69;87.65
40073;BME280;25774;52.256;9.356;2022-07-23T11:32:40;100370.91;;;21.78;86.38
40073;BME280;25774;52.256;9.356;2022-07-23T11:35:26;100385.97;;;21.97;85.03
40073;BME280;25774;52.256;9.356;2022-07-23T11:37:54;100374.06;;;21.99;85.44
40073;BME280;25774;52.256;9.356;2022-07-23T11:40:27;100271.94;;;21.57;83.94
40073;BME280;25774;52.256;9.356;2022-07-23T11:45:23;100448.13;;;22.20;84.39
40073;BME280;25774;52.256;9.356;2022-07-23T11:47:48;100264.22;;;22.31;78.76
40073;BME280;25774;52.256;9.356;2022-07-23T11:50:15;100200.91;;;21.94;77.96
40073;BME280;25774;52.256;9.356;2022-07-23T11:52:41;100340.88;;;21.56;82.35
40073;BME280;25774;52.256;9.356;2022-07-23T11:55:07;100447.69;;;22.33;81.25
40073;BME280;25774;52.256;9.356;2022-07-23T11:57:40;100430.91;;;22.31;81.67
40073;BME280;25774;52.256;9.356;2022-07-23T12:00:11;100385.13;;;22.65;79.19
40073;BME280;25774;52.256;9.356;2022-07-23T12:02:44;100131.31;;;21.74;76.49
40073;BME280;25774;52.256;9.356;2022-07-23T12:05:15;100253.31;;;22.48;75.07
40073;BME280;25774;52.256;9.356;2022-07-23T12:07:46;100232.94;;;22.29;74.94
40073;BME280;25774;52.256;9.356;2022-07-23T12:10:24;100292.91;;;22.30;75.26
40073;BME280;25774;52.256;9.356;2022-07-23T12:12:56;100390.22;;;22.76;75.80
40073;BME280;25774;52.256;9.356;2022-07-23T12:15:29;100486.72;;;23.05;77.79
40073;BME280;25774;52.256;9.356;2022-07-23T12:17:57;100251.78;;;22.46;74.78
40073;BME280;25774;52.256;9.356;2022-07-23T12:20:25;100479.00;;;23.18;77.54
40073;BME280;25774;52.256;9.356;2022-07-23T12:22:58;100273.84;;;22.90;73.10
40073;BME280;25774;52.256;9.356;2022-07-23T12:25:28;100121.88;;;22.21;73.15
40073;BME280;25774;52.256;9.356;2022-07-23T12:28:09;100515.25;;;23.49;75.52
40073;BME280;25774;52.256;9.356;2022-07-23T12:30:42;100232.50;;;22.91;72.73
40073;BME280;25774;52.256;9.356;2022-07-23T12:33:10;100316.97;;;23.39;71.55
40073;BME280;25774;52.256;9.356;2022-07-23T12:35:42;100426.38;;;23.81;72.33
40073;BME280;25774;52.256;9.356;2022-07-23T12:38:13;100190.25;;;23.25;69.85
40073;BME280;25774;52.256;9.356;2022-07-23T12:40:49;100256.91;;;23.14;70.91
40073;BME280;25774;52.256;9.356;2022-07-23T12:43:26;100168.75;;;22.84;70.33
40073;BME280;25774;52.256;9.356;2022-07-23T12:45:57;100355.66;;;23.30;71.11
40073;BME280;25774;52.256;9.356;2022-07-23T12:48:38;100286.66;;;23.46;69.63
40073;BME280;25774;52.256;9.356;2022-07-23T12:51:08;100393.88;;;23.34;71.71
40073;BME280;25774;52.256;9.356;2022-07-23T12:53:46;100215.66;;;22.89;70.62
40073;BME280;25774;52.256;9.356;2022-07-23T12:56:15;100466.28;;;23.61;72.35
40073;BME280;25774;52.256;9.356;2022-07-23T12:58:43;100247.91;;;23.55;69.36
40073;BME280;25774;52.256;9.356;2022-07-23T13:01:22;100230.97;;;22.56;71.31
40073;BME280;25774;52.256;9.356;2022-07-23T13:06:39;100428.41;;;23.71;70.88
40073;BME280;25774;52.256;9.356;2022-07-23T13:09:07;100416.06;;;24.09;69.80
40073;BME280;25774;52.256;9.356;2022-07-23T13:11:32;100292.59;;;24.28;66.43
40073;BME280;25774;52.256;9.356;2022-07-23T13:13:59;100143.88;;;23.93;65.45
40073;BME280;25774;52.256;9.356;2022-07-23T13:16:29;100066.34;;;23.64;64.19